Yakutat Airport
PAYA : now visible

Airfield :











YOU CAN JOIN US ON...

 
LOGIN :

Register | Disclaimer

   EN    FR    IT 

 









Legend :    VFR   Marginal VFR   IFR   Intensive IFR   Very Intensive IFR
Visi :
Ceiling :
>= 8 km
>= 3000ft
5 to 8 km
1000 to 3000 ft
1500m to 5 km
500 to 1000 ft
800 to 1500m
200 to 500 ft
< 800m
< 200 ft
Symbols :   Thunderstorms  Fog  Heavy snow  Heavy precipitations  Wind > 20 kt






- Airport Elevation : 33 ft


PAYA - Yakutat

CURRENT METAR :
  • 060516Z AUTO 06007KT 4SM -SN BR FEW004 BKN015 BKN025 01/00 A2975 RMK AO2 SNE04B11 P0000 T00060000 TSNO

EXPIRED METARs :
  • 060506Z AUTO 08007KT 9SM FEW004 SCT018 BKN033 01/00 A2975 RMK AO2 SNE04 P0000 T00060000 TSNO
  • 060453Z AUTO 08009KT 9SM -SN FEW004 SCT008 BKN012 01/00 A2975 RMK AO2 SNB0356 SLP073 P0007 T00060000 TSNO
  • 060444Z AUTO 07009KT 2 1/2SM -SN BR FEW005 BKN008 01/00 A2975 RMK AO2 SNB0356 P0007 T00060000 TSNO
  • 060435Z AUTO 07009KT 3/4SM -SN BR FEW005 OVC012 01/00 A2974 RMK AO2 SNB0356 P0006 T00060000 TSNO RVRNO
  • 060419Z AUTO 09005KT 1 1/4SM -SN BR BKN019 BKN031 OVC041 01/00 A2975 RMK AO2 SNB0356 P0001 T00060000 TSNO
  • 060415Z AUTO 10004KT 2SM -SN BR BKN024 BKN033 OVC041 01/00 A2975 RMK AO2 VIS 1V5 SNB0356 P0001 T00060000 TSNO
  • 060353Z AUTO 06006KT 10SM OVC037 01/M01 A2974 RMK AO2 SLP070 T00061006 TSNO
  • 060253Z AUTO 08007KT 10SM OVC046 01/M01 A2974 RMK AO2 SNB04E15 SLP070 P0000 60006 T00061006 53008 TSNO

TAF PAYA
Valid from the 06 at 00:00 until the 07 at 00:00 UTC


052343Z 0600/0624 09010KT 2SM -SHSN BR OVC014
TEMPO 0600/0602 11010G20KT 3SM -SHSNRA BR OVC020
FM060200 10008KT 6SM -SHSN OVC020
FM060900 VRB04KT P6SM VCSH OVC025 AMD LTD TO CLD VIS AND WIND



MET'MAP, your aeronautical weather chart ! - Copyright ORBIFLY December 2007 - Disclaimer

ORBIFLY MET'MAP TEAM :

Programming & Development : Alexandra Zaïnal
Concept & original design : Baudouin d'Aumeries
Assistance for programming : Marc-Olivier Méhu
Technical & hardware support : Manuel Goepfert

Contact : metmap@orbifly.com




SOURCES & CREDITS :

   NOAA       Earth
Advisory